sensor_id;sensor_type;location;lat;lon;timestamp;P1;durP1;ratioP1;P2;durP2;ratioP2
1831;SDS011;1680;48.106;11.708;2022-08-19T00:00:47;8.80;;;8.00;;
1831;SDS011;1680;48.106;11.708;2022-08-19T00:03:15;7.77;;;7.17;;
1831;SDS011;1680;48.106;11.708;2022-08-19T00:05:42;8.13;;;7.43;;
1831;SDS011;1680;48.106;11.708;2022-08-19T00:08:09;7.53;;;6.93;;
1831;SDS011;1680;48.106;11.708;2022-08-19T00:10:36;6.87;;;6.17;;
1831;SDS011;1680;48.106;11.708;2022-08-19T00:13:03;7.80;;;7.17;;
1831;SDS011;1680;48.106;11.708;2022-08-19T00:15:30;7.53;;;6.93;;
1831;SDS011;1680;48.106;11.708;2022-08-19T00:17:56;7.70;;;7.10;;
1831;SDS011;1680;48.106;11.708;2022-08-19T00:20:23;7.40;;;6.80;;
1831;SDS011;1680;48.106;11.708;2022-08-19T00:22:50;6.93;;;6.33;;
1831;SDS011;1680;48.106;11.708;2022-08-19T00:25:18;7.33;;;6.63;;
1831;SDS011;1680;48.106;11.708;2022-08-19T00:27:45;7.03;;;6.47;;
1831;SDS011;1680;48.106;11.708;2022-08-19T00:30:12;7.30;;;6.60;;
1831;SDS011;1680;48.106;11.708;2022-08-19T00:32:45;7.07;;;6.47;;
1831;SDS011;1680;48.106;11.708;2022-08-19T00:35:12;6.57;;;6.03;;
1831;SDS011;1680;48.106;11.708;2022-08-19T00:37:38;7.00;;;6.40;;
1831;SDS011;1680;48.106;11.708;2022-08-19T00:40:08;7.23;;;6.60;;
1831;SDS011;1680;48.106;11.708;2022-08-19T00:42:39;6.87;;;6.27;;
1831;SDS011;1680;48.106;11.708;2022-08-19T00:45:09;6.60;;;6.00;;
1831;SDS011;1680;48.106;11.708;2022-08-19T00:47:36;7.10;;;6.50;;
1831;SDS011;1680;48.106;11.708;2022-08-19T00:50:02;7.30;;;6.70;;
1831;SDS011;1680;48.106;11.708;2022-08-19T00:52:33;7.53;;;6.90;;
1831;SDS011;1680;48.106;11.708;2022-08-19T00:55:01;7.30;;;6.60;;
1831;SDS011;1680;48.106;11.708;2022-08-19T00:57:29;7.57;;;6.87;;
1831;SDS011;1680;48.106;11.708;2022-08-19T00:59:58;7.53;;;6.77;;
1831;SDS011;1680;48.106;11.708;2022-08-19T01:02:25;6.53;;;5.93;;
1831;SDS011;1680;48.106;11.708;2022-08-19T01:04:53;7.83;;;6.50;;
1831;SDS011;1680;48.106;11.708;2022-08-19T01:07:20;7.43;;;6.83;;
1831;SDS011;1680;48.106;11.708;2022-08-19T01:09:46;7.93;;;7.17;;
1831;SDS011;1680;48.106;11.708;2022-08-19T01:12:13;8.20;;;7.33;;
1831;SDS011;1680;48.106;11.708;2022-08-19T01:14:40;7.63;;;6.93;;
1831;SDS011;1680;48.106;11.708;2022-08-19T01:17:08;7.67;;;6.97;;
1831;SDS011;1680;48.106;11.708;2022-08-19T01:19:37;8.10;;;7.40;;
1831;SDS011;1680;48.106;11.708;2022-08-19T01:22:06;8.10;;;7.33;;
1831;SDS011;1680;48.106;11.708;2022-08-19T01:24:36;8.87;;;7.97;;
1831;SDS011;1680;48.106;11.708;2022-08-19T01:27:05;7.47;;;6.87;;
1831;SDS011;1680;48.106;11.708;2022-08-19T01:29:36;7.80;;;7.10;;
1831;SDS011;1680;48.106;11.708;2022-08-19T01:32:03;7.80;;;7.10;;
1831;SDS011;1680;48.106;11.708;2022-08-19T01:34:32;7.43;;;6.73;;
1831;SDS011;1680;48.106;11.708;2022-08-19T01:37:05;8.60;;;7.83;;
1831;SDS011;1680;48.106;11.708;2022-08-19T01:39:34;7.50;;;6.80;;
1831;SDS011;1680;48.106;11.708;2022-08-19T01:42:02;7.10;;;6.17;;
1831;SDS011;1680;48.106;11.708;2022-08-19T01:44:29;7.63;;;7.03;;
1831;SDS011;1680;48.106;11.708;2022-08-19T01:46:56;7.30;;;6.70;;
1831;SDS011;1680;48.106;11.708;2022-08-19T01:49:23;7.50;;;6.80;;
1831;SDS011;1680;48.106;11.708;2022-08-19T01:51:51;7.33;;;6.73;;
1831;SDS011;1680;48.106;11.708;2022-08-19T01:54:19;6.67;;;6.13;;
1831;SDS011;1680;48.106;11.708;2022-08-19T01:56:48;7.07;;;6.40;;
1831;SDS011;1680;48.106;11.708;2022-08-19T01:59:17;7.47;;;6.87;;
1831;SDS011;1680;48.106;11.708;2022-08-19T02:01:44;7.37;;;6.77;;
1831;SDS011;1680;48.106;11.708;2022-08-19T02:04:10;6.60;;;6.10;;
1831;SDS011;1680;48.106;11.708;2022-08-19T02:06:37;7.50;;;6.90;;
1831;SDS011;1680;48.106;11.708;2022-08-19T02:09:05;7.67;;;7.07;;
1831;SDS011;1680;48.106;11.708;2022-08-19T02:11:33;7.63;;;6.80;;
1831;SDS011;1680;48.106;11.708;2022-08-19T02:14:01;6.80;;;6.20;;
1831;SDS011;1680;48.106;11.708;2022-08-19T02:16:29;6.50;;;5.97;;
1831;SDS011;1680;48.106;11.708;2022-08-19T02:18:56;6.90;;;6.30;;
1831;SDS011;1680;48.106;11.708;2022-08-19T02:21:26;6.60;;;6.00;;
1831;SDS011;1680;48.106;11.708;2022-08-19T02:23:53;7.20;;;6.27;;
1831;SDS011;1680;48.106;11.708;2022-08-19T02:26:20;6.40;;;5.90;;
1831;SDS011;1680;48.106;11.708;2022-08-19T02:28:47;6.80;;;6.10;;
1831;SDS011;1680;48.106;11.708;2022-08-19T02:31:16;6.20;;;5.70;;
1831;SDS011;1680;48.106;11.708;2022-08-19T02:33:44;6.37;;;5.87;;
1831;SDS011;1680;48.106;11.708;2022-08-19T02:36:11;6.50;;;6.00;;
1831;SDS011;1680;48.106;11.708;2022-08-19T02:38:38;6.10;;;5.60;;
1831;SDS011;1680;48.106;11.708;2022-08-19T02:41:04;6.37;;;5.87;;
1831;SDS011;1680;48.106;11.708;2022-08-19T02:43:33;6.13;;;5.63;;
1831;SDS011;1680;48.106;11.708;2022-08-19T02:46:02;5.70;;;5.23;;
1831;SDS011;1680;48.106;11.708;2022-08-19T02:48:28;5.73;;;5.30;;
1831;SDS011;1680;48.106;11.708;2022-08-19T02:50:59;5.90;;;5.40;;
1831;SDS011;1680;48.106;11.708;2022-08-19T02:53:27;5.80;;;5.40;;
1831;SDS011;1680;48.106;11.708;2022-08-19T02:55:54;6.63;;;5.93;;
1831;SDS011;1680;48.106;11.708;2022-08-19T02:58:20;5.90;;;5.40;;
1831;SDS011;1680;48.106;11.708;2022-08-19T03:00:50;6.30;;;5.70;;
1831;SDS011;1680;48.106;11.708;2022-08-19T03:03:17;6.87;;;6.27;;
1831;SDS011;1680;48.106;11.708;2022-08-19T03:05:44;6.20;;;5.70;;
1831;SDS011;1680;48.106;11.708;2022-08-19T03:08:12;5.93;;;5.43;;
1831;SDS011;1680;48.106;11.708;2022-08-19T03:10:42;6.37;;;5.30;;
1831;SDS011;1680;48.106;11.708;2022-08-19T03:13:10;5.87;;;5.37;;
1831;SDS011;1680;48.106;11.708;2022-08-19T03:15:39;6.40;;;5.80;;
1831;SDS011;1680;48.106;11.708;2022-08-19T03:18:05;6.43;;;5.93;;
1831;SDS011;1680;48.106;11.708;2022-08-19T03:20:32;6.30;;;5.80;;
1831;SDS011;1680;48.106;11.708;2022-08-19T03:22:58;7.00;;;6.30;;
1831;SDS011;1680;48.106;11.708;2022-08-19T03:25:27;6.57;;;5.97;;
1831;SDS011;1680;48.106;11.708;2022-08-19T03:27:53;6.10;;;5.60;;
1831;SDS011;1680;48.106;11.708;2022-08-19T03:30:20;6.00;;;5.50;;
1831;SDS011;1680;48.106;11.708;2022-08-19T03:32:46;6.67;;;6.17;;
1831;SDS011;1680;48.106;11.708;2022-08-19T03:35:13;6.33;;;5.77;;
1831;SDS011;1680;48.106;11.708;2022-08-19T03:37:39;5.90;;;5.40;;
1831;SDS011;1680;48.106;11.708;2022-08-19T03:40:06;5.93;;;5.43;;
1831;SDS011;1680;48.106;11.708;2022-08-19T03:42:38;5.57;;;5.10;;
1831;SDS011;1680;48.106;11.708;2022-08-19T03:45:13;6.03;;;5.53;;
1831;SDS011;1680;48.106;11.708;2022-08-19T03:47:40;6.53;;;6.03;;
1831;SDS011;1680;48.106;11.708;2022-08-19T03:50:06;6.50;;;5.93;;
1831;SDS011;1680;48.106;11.708;2022-08-19T03:52:33;6.63;;;5.97;;
1831;SDS011;1680;48.106;11.708;2022-08-19T03:55:02;6.43;;;5.77;;
1831;SDS011;1680;48.106;11.708;2022-08-19T03:57:28;7.10;;;6.50;;
1831;SDS011;1680;48.106;11.708;2022-08-19T03:59:59;6.80;;;6.20;;
1831;SDS011;1680;48.106;11.708;2022-08-19T04:02:29;6.20;;;5.60;;
1831;SDS011;1680;48.106;11.708;2022-08-19T04:04:57;6.00;;;5.60;;
1831;SDS011;1680;48.106;11.708;2022-08-19T04:07:24;6.00;;;5.50;;
1831;SDS011;1680;48.106;11.708;2022-08-19T04:09:50;6.67;;;6.07;;
1831;SDS011;1680;48.106;11.708;2022-08-19T04:12:18;6.60;;;6.10;;
1831;SDS011;1680;48.106;11.708;2022-08-19T04:14:46;6.60;;;6.00;;
1831;SDS011;1680;48.106;11.708;2022-08-19T04:17:14;6.80;;;6.20;;
1831;SDS011;1680;48.106;11.708;2022-08-19T04:19:40;6.30;;;5.80;;
1831;SDS011;1680;48.106;11.708;2022-08-19T04:22:08;5.80;;;5.37;;
1831;SDS011;1680;48.106;11.708;2022-08-19T04:24:36;6.10;;;5.60;;
1831;SDS011;1680;48.106;11.708;2022-08-19T04:27:02;5.23;;;4.77;;
1831;SDS011;1680;48.106;11.708;2022-08-19T04:29:30;5.87;;;5.37;;
1831;SDS011;1680;48.106;11.708;2022-08-19T04:31:57;6.20;;;5.70;;
1831;SDS011;1680;48.106;11.708;2022-08-19T04:34:27;5.57;;;5.17;;
1831;SDS011;1680;48.106;11.708;2022-08-19T04:36:56;5.93;;;5.43;;
1831;SDS011;1680;48.106;11.708;2022-08-19T04:39:24;5.53;;;5.07;;
1831;SDS011;1680;48.106;11.708;2022-08-19T04:42:12;4.83;;;4.43;;
1831;SDS011;1680;48.106;11.708;2022-08-19T04:44:57;5.07;;;4.67;;
1831;SDS011;1680;48.106;11.708;2022-08-19T04:47:25;5.40;;;4.90;;
1831;SDS011;1680;48.106;11.708;2022-08-19T04:49:56;6.17;;;5.07;;
1831;SDS011;1680;48.106;11.708;2022-08-19T04:52:23;5.37;;;4.97;;
1831;SDS011;1680;48.106;11.708;2022-08-19T04:54:50;5.17;;;4.77;;
1831;SDS011;1680;48.106;11.708;2022-08-19T04:57:16;5.50;;;5.10;;
1831;SDS011;1680;48.106;11.708;2022-08-19T04:59:45;5.40;;;5.00;;
1831;SDS011;1680;48.106;11.708;2022-08-19T05:02:12;6.03;;;5.53;;
1831;SDS011;1680;48.106;11.708;2022-08-19T05:04:39;6.40;;;5.80;;
1831;SDS011;1680;48.106;11.708;2022-08-19T05:07:09;6.03;;;5.53;;
1831;SDS011;1680;48.106;11.708;2022-08-19T05:09:37;5.90;;;5.40;;
1831;SDS011;1680;48.106;11.708;2022-08-19T05:12:04;5.53;;;5.10;;
1831;SDS011;1680;48.106;11.708;2022-08-19T05:14:31;6.07;;;5.57;;
1831;SDS011;1680;48.106;11.708;2022-08-19T05:16:58;6.00;;;5.50;;
1831;SDS011;1680;48.106;11.708;2022-08-19T05:19:24;6.53;;;5.60;;
1831;SDS011;1680;48.106;11.708;2022-08-19T05:22:10;6.03;;;5.53;;
1831;SDS011;1680;48.106;11.708;2022-08-19T05:24:54;5.43;;;5.03;;
1831;SDS011;1680;48.106;11.708;2022-08-19T05:27:21;5.17;;;4.67;;
1831;SDS011;1680;48.106;11.708;2022-08-19T05:29:47;5.43;;;5.03;;
1831;SDS011;1680;48.106;11.708;2022-08-19T05:32:14;5.20;;;4.70;;
1831;SDS011;1680;48.106;11.708;2022-08-19T05:34:40;5.63;;;5.20;;
1831;SDS011;1680;48.106;11.708;2022-08-19T05:37:07;6.00;;;5.50;;
1831;SDS011;1680;48.106;11.708;2022-08-19T05:39:38;5.67;;;5.17;;
1831;SDS011;1680;48.106;11.708;2022-08-19T05:42:06;5.90;;;5.40;;
1831;SDS011;1680;48.106;11.708;2022-08-19T05:44:34;5.97;;;5.40;;
1831;SDS011;1680;48.106;11.708;2022-08-19T05:47:01;5.70;;;5.20;;
1831;SDS011;1680;48.106;11.708;2022-08-19T05:49:29;6.30;;;5.73;;
1831;SDS011;1680;48.106;11.708;2022-08-19T05:51:56;6.67;;;6.07;;
1831;SDS011;1680;48.106;11.708;2022-08-19T05:54:23;6.50;;;5.90;;
1831;SDS011;1680;48.106;11.708;2022-08-19T05:56:52;6.20;;;5.70;;
1831;SDS011;1680;48.106;11.708;2022-08-19T05:59:19;8.00;;;7.30;;
1831;SDS011;1680;48.106;11.708;2022-08-19T06:01:47;6.90;;;6.30;;
1831;SDS011;1680;48.106;11.708;2022-08-19T06:04:15;7.30;;;6.60;;
1831;SDS011;1680;48.106;11.708;2022-08-19T06:06:44;6.17;;;5.67;;
1831;SDS011;1680;48.106;11.708;2022-08-19T06:09:11;7.03;;;6.43;;
1831;SDS011;1680;48.106;11.708;2022-08-19T06:11:38;7.17;;;6.57;;
1831;SDS011;1680;48.106;11.708;2022-08-19T06:14:08;7.03;;;6.40;;
1831;SDS011;1680;48.106;11.708;2022-08-19T06:16:36;7.77;;;7.07;;
1831;SDS011;1680;48.106;11.708;2022-08-19T06:19:04;7.53;;;6.87;;
1831;SDS011;1680;48.106;11.708;2022-08-19T06:21:35;8.37;;;7.57;;
1831;SDS011;1680;48.106;11.708;2022-08-19T06:24:04;7.47;;;6.83;;
1831;SDS011;1680;48.106;11.708;2022-08-19T06:26:34;8.00;;;7.30;;
1831;SDS011;1680;48.106;11.708;2022-08-19T06:29:03;8.83;;;8.03;;
1831;SDS011;1680;48.106;11.708;2022-08-19T06:31:33;9.77;;;7.70;;
1831;SDS011;1680;48.106;11.708;2022-08-19T06:34:04;9.73;;;8.73;;
1831;SDS011;1680;48.106;11.708;2022-08-19T06:36:31;8.80;;;8.10;;
1831;SDS011;1680;48.106;11.708;2022-08-19T06:38:59;8.57;;;7.80;;
1831;SDS011;1680;48.106;11.708;2022-08-19T06:41:26;9.27;;;8.37;;
1831;SDS011;1680;48.106;11.708;2022-08-19T06:43:52;8.70;;;7.90;;
1831;SDS011;1680;48.106;11.708;2022-08-19T06:46:19;9.73;;;8.83;;
1831;SDS011;1680;48.106;11.708;2022-08-19T06:48:47;12.03;;;9.90;;
1831;SDS011;1680;48.106;11.708;2022-08-19T06:51:15;9.87;;;8.87;;
1831;SDS011;1680;48.106;11.708;2022-08-19T06:53:43;11.00;;;9.90;;
1831;SDS011;1680;48.106;11.708;2022-08-19T06:56:12;10.17;;;9.27;;
1831;SDS011;1680;48.106;11.708;2022-08-19T06:58:39;10.80;;;9.80;;
1831;SDS011;1680;48.106;11.708;2022-08-19T07:01:06;10.27;;;9.27;;
1831;SDS011;1680;48.106;11.708;2022-08-19T07:03:36;10.60;;;9.60;;
1831;SDS011;1680;48.106;11.708;2022-08-19T07:06:04;12.13;;;10.93;;
1831;SDS011;1680;48.106;11.708;2022-08-19T07:08:32;12.60;;;11.30;;
1831;SDS011;1680;48.106;11.708;2022-08-19T07:10:59;11.60;;;10.50;;
1831;SDS011;1680;48.106;11.708;2022-08-19T07:13:25;14.90;;;11.90;;
1831;SDS011;1680;48.106;11.708;2022-08-19T07:15:52;12.77;;;11.50;;
1831;SDS011;1680;48.106;11.708;2022-08-19T07:18:21;12.60;;;11.40;;
1831;SDS011;1680;48.106;11.708;2022-08-19T07:20:48;13.20;;;12.00;;
1831;SDS011;1680;48.106;11.708;2022-08-19T07:23:16;14.03;;;12.73;;
1831;SDS011;1680;48.106;11.708;2022-08-19T07:25:42;13.63;;;12.37;;
1831;SDS011;1680;48.106;11.708;2022-08-19T07:28:12;11.90;;;10.90;;
1831;SDS011;1680;48.106;11.708;2022-08-19T07:30:38;13.23;;;12.03;;
1831;SDS011;1680;48.106;11.708;2022-08-19T07:33:05;13.07;;;11.83;;
1831;SDS011;1680;48.106;11.708;2022-08-19T07:35:32;13.37;;;12.17;;
1831;SDS011;1680;48.106;11.708;2022-08-19T07:37:59;11.73;;;10.63;;
1831;SDS011;1680;48.106;11.708;2022-08-19T07:40:30;13.53;;;12.23;;
1831;SDS011;1680;48.106;11.708;2022-08-19T07:42:56;12.97;;;11.67;;
1831;SDS011;1680;48.106;11.708;2022-08-19T07:45:23;13.20;;;12.00;;
1831;SDS011;1680;48.106;11.708;2022-08-19T07:47:49;14.73;;;13.37;;
1831;SDS011;1680;48.106;11.708;2022-08-19T07:50:17;13.57;;;12.27;;
1831;SDS011;1680;48.106;11.708;2022-08-19T07:52:44;14.97;;;13.63;;
1831;SDS011;1680;48.106;11.708;2022-08-19T07:55:11;14.87;;;13.57;;
1831;SDS011;1680;48.106;11.708;2022-08-19T07:57:39;12.93;;;11.73;;
1831;SDS011;1680;48.106;11.708;2022-08-19T08:00:09;13.93;;;12.37;;
1831;SDS011;1680;48.106;11.708;2022-08-19T08:02:38;14.23;;;13.03;;
1831;SDS011;1680;48.106;11.708;2022-08-19T08:05:12;13.30;;;11.97;;
1831;SDS011;1680;48.106;11.708;2022-08-19T08:07:56;14.57;;;13.17;;
1831;SDS011;1680;48.106;11.708;2022-08-19T08:10:40;14.73;;;13.37;;
1831;SDS011;1680;48.106;11.708;2022-08-19T08:13:09;14.93;;;13.60;;
1831;SDS011;1680;48.106;11.708;2022-08-19T08:15:36;15.80;;;14.20;;
1831;SDS011;1680;48.106;11.708;2022-08-19T08:18:03;15.57;;;14.00;;
1831;SDS011;1680;48.106;11.708;2022-08-19T08:20:32;15.00;;;13.50;;
1831;SDS011;1680;48.106;11.708;2022-08-19T08:22:58;15.17;;;13.77;;
1831;SDS011;1680;48.106;11.708;2022-08-19T08:25:42;15.63;;;14.13;;
1831;SDS011;1680;48.106;11.708;2022-08-19T08:28:10;14.53;;;13.20;;
1831;SDS011;1680;48.106;11.708;2022-08-19T08:30:37;13.63;;;12.43;;
1831;SDS011;1680;48.106;11.708;2022-08-19T08:33:06;15.43;;;13.70;;
1831;SDS011;1680;48.106;11.708;2022-08-19T08:35:33;16.07;;;14.57;;
1831;SDS011;1680;48.106;11.708;2022-08-19T08:37:59;26.40;;;15.00;;
1831;SDS011;1680;48.106;11.708;2022-08-19T08:40:29;15.80;;;14.23;;
1831;SDS011;1680;48.106;11.708;2022-08-19T08:42:58;15.60;;;13.83;;
1831;SDS011;1680;48.106;11.708;2022-08-19T08:45:38;15.07;;;13.77;;
1831;SDS011;1680;48.106;11.708;2022-08-19T08:48:10;15.97;;;14.47;;
1831;SDS011;1680;48.106;11.708;2022-08-19T08:50:47;16.60;;;15.00;;
1831;SDS011;1680;48.106;11.708;2022-08-19T08:53:16;15.03;;;13.63;;
1831;SDS011;1680;48.106;11.708;2022-08-19T08:55:46;17.17;;;15.47;;
1831;SDS011;1680;48.106;11.708;2022-08-19T08:58:17;15.37;;;13.97;;
1831;SDS011;1680;48.106;11.708;2022-08-19T09:00:49;16.43;;;14.83;;
1831;SDS011;1680;48.106;11.708;2022-08-19T09:03:17;15.27;;;13.87;;
1831;SDS011;1680;48.106;11.708;2022-08-19T09:05:48;17.07;;;15.37;;
1831;SDS011;1680;48.106;11.708;2022-08-19T09:08:17;15.77;;;14.17;;
1831;SDS011;1680;48.106;11.708;2022-08-19T09:10:49;17.30;;;15.70;;
1831;SDS011;1680;48.106;11.708;2022-08-19T09:13:19;17.40;;;15.70;;
1831;SDS011;1680;48.106;11.708;2022-08-19T09:15:51;16.50;;;14.90;;
1831;SDS011;1680;48.106;11.708;2022-08-19T09:18:18;17.87;;;16.13;;
1831;SDS011;1680;48.106;11.708;2022-08-19T09:20:45;16.40;;;14.80;;
1831;SDS011;1680;48.106;11.708;2022-08-19T09:23:12;17.87;;;15.93;;
1831;SDS011;1680;48.106;11.708;2022-08-19T09:25:39;18.07;;;16.17;;
1831;SDS011;1680;48.106;11.708;2022-08-19T09:28:06;18.07;;;16.37;;
1831;SDS011;1680;48.106;11.708;2022-08-19T09:30:38;18.83;;;16.93;;
1831;SDS011;1680;48.106;11.708;2022-08-19T09:33:06;17.53;;;15.83;;
1831;SDS011;1680;48.106;11.708;2022-08-19T09:35:33;17.63;;;15.90;;
1831;SDS011;1680;48.106;11.708;2022-08-19T09:38:01;15.00;;;13.60;;
1831;SDS011;1680;48.106;11.708;2022-08-19T09:40:29;15.00;;;13.53;;
1831;SDS011;1680;48.106;11.708;2022-08-19T09:42:56;15.20;;;13.77;;
1831;SDS011;1680;48.106;11.708;2022-08-19T09:45:27;16.27;;;14.67;;
1831;SDS011;1680;48.106;11.708;2022-08-19T09:47:54;14.00;;;12.70;;
1831;SDS011;1680;48.106;11.708;2022-08-19T09:50:24;14.33;;;13.00;;
1831;SDS011;1680;48.106;11.708;2022-08-19T09:52:51;14.57;;;13.27;;
1831;SDS011;1680;48.106;11.708;2022-08-19T09:55:19;12.80;;;11.60;;
1831;SDS011;1680;48.106;11.708;2022-08-19T09:57:45;13.13;;;11.93;;
1831;SDS011;1680;48.106;11.708;2022-08-19T10:00:12;12.83;;;11.73;;
1831;SDS011;1680;48.106;11.708;2022-08-19T10:02:39;11.83;;;10.73;;
1831;SDS011;1680;48.106;11.708;2022-08-19T10:05:05;13.13;;;11.83;;
1831;SDS011;1680;48.106;11.708;2022-08-19T10:07:51;12.87;;;11.67;;
1831;SDS011;1680;48.106;11.708;2022-08-19T10:10:17;12.77;;;11.57;;
1831;SDS011;1680;48.106;11.708;2022-08-19T10:12:44;13.20;;;12.00;;
1831;SDS011;1680;48.106;11.708;2022-08-19T10:15:12;12.37;;;11.17;;
1831;SDS011;1680;48.106;11.708;2022-08-19T10:17:39;12.53;;;11.30;;
1831;SDS011;1680;48.106;11.708;2022-08-19T10:20:06;12.07;;;10.97;;
1831;SDS011;1680;48.106;11.708;2022-08-19T10:22:36;12.23;;;11.23;;
1831;SDS011;1680;48.106;11.708;2022-08-19T10:25:06;11.10;;;10.20;;
1831;SDS011;1680;48.106;11.708;2022-08-19T10:27:33;11.50;;;10.50;;
1831;SDS011;1680;48.106;11.708;2022-08-19T10:29:59;10.53;;;9.63;;
1831;SDS011;1680;48.106;11.708;2022-08-19T10:32:26;11.43;;;10.30;;
1831;SDS011;1680;48.106;11.708;2022-08-19T10:34:55;10.70;;;9.70;;
1831;SDS011;1680;48.106;11.708;2022-08-19T10:37:22;9.33;;;8.63;;
1831;SDS011;1680;48.106;11.708;2022-08-19T10:39:49;10.50;;;9.60;;
1831;SDS011;1680;48.106;11.708;2022-08-19T10:42:17;8.87;;;8.07;;
1831;SDS011;1680;48.106;11.708;2022-08-19T10:44:45;8.30;;;7.60;;
1831;SDS011;1680;48.106;11.708;2022-08-19T10:47:13;9.40;;;8.60;;
1831;SDS011;1680;48.106;11.708;2022-08-19T10:49:40;8.80;;;7.90;;
1831;SDS011;1680;48.106;11.708;2022-08-19T10:52:20;8.10;;;7.40;;
1831;SDS011;1680;48.106;11.708;2022-08-19T10:55:02;9.70;;;8.80;;
1831;SDS011;1680;48.106;11.708;2022-08-19T10:57:48;9.43;;;8.63;;
1831;SDS011;1680;48.106;11.708;2022-08-19T11:00:15;8.63;;;7.83;;
1831;SDS011;1680;48.106;11.708;2022-08-19T11:02:41;8.57;;;7.87;;
1831;SDS011;1680;48.106;11.708;2022-08-19T11:05:08;9.30;;;8.40;;
1831;SDS011;1680;48.106;11.708;2022-08-19T11:07:36;9.27;;;8.47;;
1831;SDS011;1680;48.106;11.708;2022-08-19T11:10:03;9.27;;;8.50;;
1831;SDS011;1680;48.106;11.708;2022-08-19T11:12:29;9.13;;;8.40;;
1831;SDS011;1680;48.106;11.708;2022-08-19T11:14:57;9.70;;;8.87;;
1831;SDS011;1680;48.106;11.708;2022-08-19T11:17:24;10.20;;;9.20;;
1831;SDS011;1680;48.106;11.708;2022-08-19T11:19:50;8.47;;;7.77;;
1831;SDS011;1680;48.106;11.708;2022-08-19T11:22:17;9.00;;;8.20;;
1831;SDS011;1680;48.106;11.708;2022-08-19T11:24:44;9.13;;;8.33;;
1831;SDS011;1680;48.106;11.708;2022-08-19T11:27:10;8.33;;;7.60;;
1831;SDS011;1680;48.106;11.708;2022-08-19T11:29:37;9.77;;;8.97;;
1831;SDS011;1680;48.106;11.708;2022-08-19T11:32:06;9.80;;;8.90;;
1831;SDS011;1680;48.106;11.708;2022-08-19T11:34:34;9.10;;;8.30;;
1831;SDS011;1680;48.106;11.708;2022-08-19T11:37:03;9.70;;;8.80;;
1831;SDS011;1680;48.106;11.708;2022-08-19T11:39:32;8.57;;;7.83;;
1831;SDS011;1680;48.106;11.708;2022-08-19T11:42:09;8.37;;;7.67;;
1831;SDS011;1680;48.106;11.708;2022-08-19T11:44:53;8.83;;;8.10;;
1831;SDS011;1680;48.106;11.708;2022-08-19T11:47:21;8.23;;;7.53;;
1831;SDS011;1680;48.106;11.708;2022-08-19T11:49:48;8.47;;;7.77;;
1831;SDS011;1680;48.106;11.708;2022-08-19T11:52:14;7.13;;;6.53;;
1831;SDS011;1680;48.106;11.708;2022-08-19T11:54:41;7.07;;;6.47;;
1831;SDS011;1680;48.106;11.708;2022-08-19T11:57:08;7.30;;;6.70;;
1831;SDS011;1680;48.106;11.708;2022-08-19T11:59:34;7.43;;;6.83;;
1831;SDS011;1680;48.106;11.708;2022-08-19T12:02:01;7.40;;;6.70;;
1831;SDS011;1680;48.106;11.708;2022-08-19T12:04:30;6.87;;;6.37;;
1831;SDS011;1680;48.106;11.708;2022-08-19T12:06:56;8.43;;;7.73;;
1831;SDS011;1680;48.106;11.708;2022-08-19T12:09:23;8.87;;;8.17;;
1831;SDS011;1680;48.106;11.708;2022-08-19T12:11:49;8.73;;;7.97;;
1831;SDS011;1680;48.106;11.708;2022-08-19T12:14:17;9.27;;;8.47;;
1831;SDS011;1680;48.106;11.708;2022-08-19T12:16:44;8.30;;;7.60;;
1831;SDS011;1680;48.106;11.708;2022-08-19T12:19:11;8.40;;;7.70;;
1831;SDS011;1680;48.106;11.708;2022-08-19T12:21:39;7.23;;;6.63;;
1831;SDS011;1680;48.106;11.708;2022-08-19T12:24:06;6.50;;;5.97;;
1831;SDS011;1680;48.106;11.708;2022-08-19T12:26:33;6.80;;;6.20;;
1831;SDS011;1680;48.106;11.708;2022-08-19T12:29:01;6.23;;;5.73;;
1831;SDS011;1680;48.106;11.708;2022-08-19T12:31:28;5.50;;;5.10;;
1831;SDS011;1680;48.106;11.708;2022-08-19T12:33:55;5.47;;;5.07;;
1831;SDS011;1680;48.106;11.708;2022-08-19T12:36:24;4.67;;;4.27;;
1831;SDS011;1680;48.106;11.708;2022-08-19T12:38:52;4.17;;;3.87;;
1831;SDS011;1680;48.106;11.708;2022-08-19T12:41:21;3.10;;;2.90;;
1831;SDS011;1680;48.106;11.708;2022-08-19T12:43:49;3.17;;;2.97;;
1831;SDS011;1680;48.106;11.708;2022-08-19T12:46:24;2.70;;;2.50;;
1831;SDS011;1680;48.106;11.708;2022-08-19T12:48:51;2.43;;;2.23;;
1831;SDS011;1680;48.106;11.708;2022-08-19T12:51:21;2.50;;;2.30;;
1831;SDS011;1680;48.106;11.708;2022-08-19T12:53:48;2.47;;;2.27;;
1831;SDS011;1680;48.106;11.708;2022-08-19T12:56:17;1.70;;;1.60;;
1831;SDS011;1680;48.106;11.708;2022-08-19T12:58:44;2.00;;;1.90;;
1831;SDS011;1680;48.106;11.708;2022-08-19T13:01:12;1.60;;;1.43;;
1831;SDS011;1680;48.106;11.708;2022-08-19T13:03:38;1.77;;;1.67;;
1831;SDS011;1680;48.106;11.708;2022-08-19T13:06:06;1.60;;;1.50;;
1831;SDS011;1680;48.106;11.708;2022-08-19T13:08:34;1.83;;;1.73;;
1831;SDS011;1680;48.106;11.708;2022-08-19T13:11:07;1.60;;;1.50;;
1831;SDS011;1680;48.106;11.708;2022-08-19T13:13:38;1.63;;;1.53;;
1831;SDS011;1680;48.106;11.708;2022-08-19T13:17:17;1.70;;;1.60;;
1831;SDS011;1680;48.106;11.708;2022-08-19T13:31:04;1.67;;;1.57;;
1831;SDS011;1680;48.106;11.708;2022-08-19T13:43:51;2.60;;;2.43;;
1831;SDS011;1680;48.106;11.708;2022-08-19T13:46:19;1.87;;;1.77;;
1831;SDS011;1680;48.106;11.708;2022-08-19T13:48:46;2.10;;;1.90;;
1831;SDS011;1680;48.106;11.708;2022-08-19T13:51:13;2.47;;;2.27;;
1831;SDS011;1680;48.106;11.708;2022-08-19T13:53:41;1.73;;;1.63;;
1831;SDS011;1680;48.106;11.708;2022-08-19T13:56:11;2.00;;;1.90;;
1831;SDS011;1680;48.106;11.708;2022-08-19T13:58:39;1.87;;;1.77;;
1831;SDS011;1680;48.106;11.708;2022-08-19T14:01:09;2.17;;;2.07;;
1831;SDS011;1680;48.106;11.708;2022-08-19T14:03:36;1.80;;;1.70;;
1831;SDS011;1680;48.106;11.708;2022-08-19T14:06:04;2.10;;;2.00;;
1831;SDS011;1680;48.106;11.708;2022-08-19T14:08:31;1.87;;;1.77;;
1831;SDS011;1680;48.106;11.708;2022-08-19T14:10:58;1.90;;;1.80;;
1831;SDS011;1680;48.106;11.708;2022-08-19T14:13:26;1.77;;;1.67;;
1831;SDS011;1680;48.106;11.708;2022-08-19T14:15:52;1.97;;;1.87;;
1831;SDS011;1680;48.106;11.708;2022-08-19T14:18:21;1.90;;;1.80;;
1831;SDS011;1680;48.106;11.708;2022-08-19T14:20:47;2.40;;;2.20;;
1831;SDS011;1680;48.106;11.708;2022-08-19T14:23:14;2.33;;;2.13;;
1831;SDS011;1680;48.106;11.708;2022-08-19T14:25:44;2.63;;;2.43;;
1831;SDS011;1680;48.106;11.708;2022-08-19T14:28:11;2.90;;;2.70;;
1831;SDS011;1680;48.106;11.708;2022-08-19T14:30:38;2.73;;;2.53;;
1831;SDS011;1680;48.106;11.708;2022-08-19T14:33:07;2.60;;;2.40;;
1831;SDS011;1680;48.106;11.708;2022-08-19T14:35:35;2.83;;;2.63;;
1831;SDS011;1680;48.106;11.708;2022-08-19T14:38:03;2.47;;;2.27;;
1831;SDS011;1680;48.106;11.708;2022-08-19T14:40:31;3.00;;;2.80;;
1831;SDS011;1680;48.106;11.708;2022-08-19T14:43:00;3.10;;;2.90;;
1831;SDS011;1680;48.106;11.708;2022-08-19T14:45:29;3.07;;;2.87;;
1831;SDS011;1680;48.106;11.708;2022-08-19T14:47:57;3.00;;;2.80;;
1831;SDS011;1680;48.106;11.708;2022-08-19T14:50:25;3.10;;;2.90;;
1831;SDS011;1680;48.106;11.708;2022-08-19T14:52:59;2.83;;;2.63;;
1831;SDS011;1680;48.106;11.708;2022-08-19T14:55:27;3.40;;;3.20;;
1831;SDS011;1680;48.106;11.708;2022-08-19T14:57:54;4.10;;;3.70;;
1831;SDS011;1680;48.106;11.708;2022-08-19T15:00:24;4.10;;;3.80;;
1831;SDS011;1680;48.106;11.708;2022-08-19T15:02:54;3.50;;;3.20;;
1831;SDS011;1680;48.106;11.708;2022-08-19T15:05:23;3.00;;;2.80;;
1831;SDS011;1680;48.106;11.708;2022-08-19T15:07:52;3.00;;;2.80;;
1831;SDS011;1680;48.106;11.708;2022-08-19T15:10:23;3.40;;;3.20;;
1831;SDS011;1680;48.106;11.708;2022-08-19T15:12:49;3.30;;;3.10;;
1831;SDS011;1680;48.106;11.708;2022-08-19T15:15:16;2.97;;;2.77;;
1831;SDS011;1680;48.106;11.708;2022-08-19T15:17:44;3.13;;;2.93;;
1831;SDS011;1680;48.106;11.708;2022-08-19T15:20:12;2.73;;;2.47;;
1831;SDS011;1680;48.106;11.708;2022-08-19T15:22:42;2.73;;;2.53;;
1831;SDS011;1680;48.106;11.708;2022-08-19T15:25:13;2.83;;;2.63;;